sensor_id;sensor_type;location;lat;lon;timestamp;P1;durP1;ratioP1;P2;durP2;ratioP2
30062;SDS011;16889;67.864;24.990;2023-02-01T00:00:24;0.60;;;0.35;;
30062;SDS011;16889;67.864;24.990;2023-02-01T00:05:10;1.02;;;0.40;;
30062;SDS011;16889;67.864;24.990;2023-02-01T00:09:56;1.25;;;0.40;;
30062;SDS011;16889;67.864;24.990;2023-02-01T00:14:42;0.50;;;0.40;;
30062;SDS011;16889;67.864;24.990;2023-02-01T00:19:28;0.93;;;0.40;;
30062;SDS011;16889;67.864;24.990;2023-02-01T00:24:14;1.95;;;0.40;;
30062;SDS011;16889;67.864;24.990;2023-02-01T00:29:00;0.73;;;0.30;;
30062;SDS011;16889;67.864;24.990;2023-02-01T00:33:48;0.90;;;0.50;;
30062;SDS011;16889;67.864;24.990;2023-02-01T00:38:36;0.93;;;0.50;;
30062;SDS011;16889;67.864;24.990;2023-02-01T00:43:22;0.85;;;0.50;;
30062;SDS011;16889;67.864;24.990;2023-02-01T00:48:08;1.60;;;0.57;;
30062;SDS011;16889;67.864;24.990;2023-02-01T00:52:54;0.30;;;0.30;;
30062;SDS011;16889;67.864;24.990;2023-02-01T00:57:40;1.98;;;0.40;;
30062;SDS011;16889;67.864;24.990;2023-02-01T01:02:26;0.40;;;0.30;;
30062;SDS011;16889;67.864;24.990;2023-02-01T01:07:12;0.60;;;0.40;;
30062;SDS011;16889;67.864;24.990;2023-02-01T01:11:58;1.85;;;0.40;;
30062;SDS011;16889;67.864;24.990;2023-02-01T01:16:47;0.80;;;0.30;;
30062;SDS011;16889;67.864;24.990;2023-02-01T01:21:35;1.85;;;0.43;;
30062;SDS011;16889;67.864;24.990;2023-02-01T01:26:22;1.95;;;0.50;;
30062;SDS011;16889;67.864;24.990;2023-02-01T01:31:10;0.70;;;0.40;;
30062;SDS011;16889;67.864;24.990;2023-02-01T01:35:58;1.77;;;0.55;;
30062;SDS011;16889;67.864;24.990;2023-02-01T01:40:47;0.38;;;0.38;;
30062;SDS011;16889;67.864;24.990;2023-02-01T01:45:35;1.23;;;0.40;;
30062;SDS011;16889;67.864;24.990;2023-02-01T01:50:23;2.70;;;0.45;;
30062;SDS011;16889;67.864;24.990;2023-02-01T01:55:15;1.52;;;0.50;;
30062;SDS011;16889;67.864;24.990;2023-02-01T02:00:09;2.22;;;0.40;;
30062;SDS011;16889;67.864;24.990;2023-02-01T02:04:58;1.67;;;0.47;;
30062;SDS011;16889;67.864;24.990;2023-02-01T02:09:44;0.90;;;0.30;;
30062;SDS011;16889;67.864;24.990;2023-02-01T02:14:30;1.30;;;0.30;;
30062;SDS011;16889;67.864;24.990;2023-02-01T02:29:36;1.65;;;0.40;;
30062;SDS011;16889;67.864;24.990;2023-02-01T02:34:38;2.00;;;0.50;;
30062;SDS011;16889;67.864;24.990;2023-02-01T02:45:01;0.35;;;0.30;;
30062;SDS011;16889;67.864;24.990;2023-02-01T02:49:49;0.60;;;0.50;;
30062;SDS011;16889;67.864;24.990;2023-02-01T02:55:06;0.63;;;0.40;;
30062;SDS011;16889;67.864;24.990;2023-02-01T02:59:54;4.50;;;0.40;;
30062;SDS011;16889;67.864;24.990;2023-02-01T03:05:01;2.47;;;0.50;;
30062;SDS011;16889;67.864;24.990;2023-02-01T03:09:47;1.90;;;0.30;;
30062;SDS011;16889;67.864;24.990;2023-02-01T03:14:35;0.57;;;0.57;;
30062;SDS011;16889;67.864;24.990;2023-02-01T03:19:25;4.45;;;0.40;;
30062;SDS011;16889;67.864;24.990;2023-02-01T03:24:37;0.57;;;0.47;;
30062;SDS011;16889;67.864;24.990;2023-02-01T03:29:29;0.88;;;0.40;;
30062;SDS011;16889;67.864;24.990;2023-02-01T03:34:37;2.17;;;0.32;;
30062;SDS011;16889;67.864;24.990;2023-02-01T03:39:45;0.35;;;0.32;;
30062;SDS011;16889;67.864;24.990;2023-02-01T03:44:58;2.60;;;0.38;;
30062;SDS011;16889;67.864;24.990;2023-02-01T03:49:57;1.35;;;0.43;;
30062;SDS011;16889;67.864;24.990;2023-02-01T03:54:47;0.30;;;0.30;;
30062;SDS011;16889;67.864;24.990;2023-02-01T03:59:38;1.30;;;0.40;;
30062;SDS011;16889;67.864;24.990;2023-02-01T04:04:26;1.60;;;0.52;;
30062;SDS011;16889;67.864;24.990;2023-02-01T04:09:12;3.10;;;0.80;;
30062;SDS011;16889;67.864;24.990;2023-02-01T04:13:58;4.25;;;0.50;;
30062;SDS011;16889;67.864;24.990;2023-02-01T04:18:51;1.25;;;0.40;;
30062;SDS011;16889;67.864;24.990;2023-02-01T04:23:37;0.77;;;0.50;;
30062;SDS011;16889;67.864;24.990;2023-02-01T04:28:23;1.00;;;0.40;;
30062;SDS011;16889;67.864;24.990;2023-02-01T04:33:09;1.17;;;0.50;;
30062;SDS011;16889;67.864;24.990;2023-02-01T04:37:59;2.70;;;0.50;;
30062;SDS011;16889;67.864;24.990;2023-02-01T04:42:45;3.78;;;0.57;;
30062;SDS011;16889;67.864;24.990;2023-02-01T04:47:31;5.00;;;0.63;;
30062;SDS011;16889;67.864;24.990;2023-02-01T04:52:17;3.45;;;0.60;;
30062;SDS011;16889;67.864;24.990;2023-02-01T04:57:03;2.25;;;0.40;;
30062;SDS011;16889;67.864;24.990;2023-02-01T05:01:49;0.93;;;0.40;;
30062;SDS011;16889;67.864;24.990;2023-02-01T05:06:35;2.90;;;0.40;;
30062;SDS011;16889;67.864;24.990;2023-02-01T05:11:21;4.00;;;0.52;;
30062;SDS011;16889;67.864;24.990;2023-02-01T05:16:25;2.50;;;0.47;;
30062;SDS011;16889;67.864;24.990;2023-02-01T05:21:12;0.77;;;0.40;;
30062;SDS011;16889;67.864;24.990;2023-02-01T05:25:58;0.75;;;0.52;;
30062;SDS011;16889;67.864;24.990;2023-02-01T05:30:45;0.60;;;0.60;;
30062;SDS011;16889;67.864;24.990;2023-02-01T05:35:31;3.00;;;0.60;;
30062;SDS011;16889;67.864;24.990;2023-02-01T05:40:17;2.75;;;0.50;;
30062;SDS011;16889;67.864;24.990;2023-02-01T05:45:03;0.75;;;0.40;;
30062;SDS011;16889;67.864;24.990;2023-02-01T05:49:53;1.10;;;0.40;;
30062;SDS011;16889;67.864;24.990;2023-02-01T05:54:39;3.33;;;0.63;;
30062;SDS011;16889;67.864;24.990;2023-02-01T05:59:25;2.90;;;0.50;;
30062;SDS011;16889;67.864;24.990;2023-02-01T06:04:10;1.15;;;0.50;;
30062;SDS011;16889;67.864;24.990;2023-02-01T06:08:56;2.72;;;0.55;;
30062;SDS011;16889;67.864;24.990;2023-02-01T06:13:42;3.03;;;0.70;;
30062;SDS011;16889;67.864;24.990;2023-02-01T06:18:28;0.75;;;0.40;;
30062;SDS011;16889;67.864;24.990;2023-02-01T06:23:15;0.82;;;0.50;;
30062;SDS011;16889;67.864;24.990;2023-02-01T06:28:01;5.13;;;0.60;;
30062;SDS011;16889;67.864;24.990;2023-02-01T06:32:51;1.80;;;0.40;;
30062;SDS011;16889;67.864;24.990;2023-02-01T06:37:38;1.75;;;0.50;;
30062;SDS011;16889;67.864;24.990;2023-02-01T06:42:24;4.10;;;0.70;;
30062;SDS011;16889;67.864;24.990;2023-02-01T06:47:10;2.75;;;0.60;;
30062;SDS011;16889;67.864;24.990;2023-02-01T06:51:56;1.35;;;0.50;;
30062;SDS011;16889;67.864;24.990;2023-02-01T06:56:45;2.92;;;0.45;;
30062;SDS011;16889;67.864;24.990;2023-02-01T07:01:31;1.92;;;0.50;;
30062;SDS011;16889;67.864;24.990;2023-02-01T07:06:17;1.65;;;0.60;;
30062;SDS011;16889;67.864;24.990;2023-02-01T07:11:04;2.40;;;0.40;;
30062;SDS011;16889;67.864;24.990;2023-02-01T07:15:52;2.38;;;0.30;;
30062;SDS011;16889;67.864;24.990;2023-02-01T07:20:38;5.38;;;0.52;;
30062;SDS011;16889;67.864;24.990;2023-02-01T07:25:24;3.33;;;0.50;;
30062;SDS011;16889;67.864;24.990;2023-02-01T07:30:10;0.95;;;0.50;;
30062;SDS011;16889;67.864;24.990;2023-02-01T07:34:57;4.35;;;0.60;;
30062;SDS011;16889;67.864;24.990;2023-02-01T07:39:43;3.13;;;0.80;;
30062;SDS011;16889;67.864;24.990;2023-02-01T07:44:29;2.63;;;0.50;;
30062;SDS011;16889;67.864;24.990;2023-02-01T07:49:18;3.70;;;0.50;;
30062;SDS011;16889;67.864;24.990;2023-02-01T07:54:04;2.28;;;0.40;;
30062;SDS011;16889;67.864;24.990;2023-02-01T07:58:50;2.25;;;0.50;;
30062;SDS011;16889;67.864;24.990;2023-02-01T08:03:38;1.88;;;0.43;;
30062;SDS011;16889;67.864;24.990;2023-02-01T08:08:24;4.03;;;0.55;;
30062;SDS011;16889;67.864;24.990;2023-02-01T08:13:10;5.10;;;0.57;;
30062;SDS011;16889;67.864;24.990;2023-02-01T08:17:56;3.95;;;0.55;;
30062;SDS011;16889;67.864;24.990;2023-02-01T08:22:43;1.75;;;0.50;;
30062;SDS011;16889;67.864;24.990;2023-02-01T08:27:32;1.73;;;0.60;;
30062;SDS011;16889;67.864;24.990;2023-02-01T08:32:18;3.63;;;0.45;;
30062;SDS011;16889;67.864;24.990;2023-02-01T08:37:04;3.80;;;0.50;;
30062;SDS011;16889;67.864;24.990;2023-02-01T08:41:52;2.63;;;0.57;;
30062;SDS011;16889;67.864;24.990;2023-02-01T08:46:56;3.63;;;0.40;;
30062;SDS011;16889;67.864;24.990;2023-02-01T08:51:42;2.20;;;0.47;;
30062;SDS011;16889;67.864;24.990;2023-02-01T08:56:28;1.30;;;0.30;;
30062;SDS011;16889;67.864;24.990;2023-02-01T09:01:14;2.00;;;0.40;;
30062;SDS011;16889;67.864;24.990;2023-02-01T09:06:03;1.65;;;0.55;;
30062;SDS011;16889;67.864;24.990;2023-02-01T09:10:51;0.73;;;0.40;;
30062;SDS011;16889;67.864;24.990;2023-02-01T09:15:37;5.10;;;0.63;;
30062;SDS011;16889;67.864;24.990;2023-02-01T09:20:25;3.35;;;0.70;;
30062;SDS011;16889;67.864;24.990;2023-02-01T09:25:11;2.90;;;0.55;;
30062;SDS011;16889;67.864;24.990;2023-02-01T09:29:57;0.60;;;0.43;;
30062;SDS011;16889;67.864;24.990;2023-02-01T09:34:43;1.73;;;0.60;;
30062;SDS011;16889;67.864;24.990;2023-02-01T09:39:31;1.58;;;0.50;;
30062;SDS011;16889;67.864;24.990;2023-02-01T09:44:21;5.00;;;0.60;;
30062;SDS011;16889;67.864;24.990;2023-02-01T09:49:13;5.18;;;0.70;;
30062;SDS011;16889;67.864;24.990;2023-02-01T09:54:12;4.82;;;0.63;;
30062;SDS011;16889;67.864;24.990;2023-02-01T09:59:23;5.55;;;0.60;;
30062;SDS011;16889;67.864;24.990;2023-02-01T10:04:20;2.13;;;0.80;;
30062;SDS011;16889;67.864;24.990;2023-02-01T10:14:11;3.63;;;0.88;;
30062;SDS011;16889;67.864;24.990;2023-02-01T10:24:34;3.80;;;0.90;;
30062;SDS011;16889;67.864;24.990;2023-02-01T10:29:25;1.40;;;0.75;;
30062;SDS011;16889;67.864;24.990;2023-02-01T10:34:21;4.60;;;1.05;;
30062;SDS011;16889;67.864;24.990;2023-02-01T10:39:11;6.03;;;1.23;;
30062;SDS011;16889;67.864;24.990;2023-02-01T10:43:59;3.38;;;0.98;;
30062;SDS011;16889;67.864;24.990;2023-02-01T10:48:49;3.80;;;1.45;;
30062;SDS011;16889;67.864;24.990;2023-02-01T10:58:42;6.72;;;1.63;;
30062;SDS011;16889;67.864;24.990;2023-02-01T11:03:51;10.38;;;2.30;;
30062;SDS011;16889;67.864;24.990;2023-02-01T11:08:44;9.57;;;1.50;;
30062;SDS011;16889;67.864;24.990;2023-02-01T11:13:34;4.30;;;1.58;;
30062;SDS011;16889;67.864;24.990;2023-02-01T11:18:27;8.20;;;1.83;;
30062;SDS011;16889;67.864;24.990;2023-02-01T11:23:15;6.70;;;1.77;;
30062;SDS011;16889;67.864;24.990;2023-02-01T11:28:07;6.72;;;1.73;;
30062;SDS011;16889;67.864;24.990;2023-02-01T11:32:55;3.92;;;1.65;;
30062;SDS011;16889;67.864;24.990;2023-02-01T11:37:41;13.17;;;1.90;;
30062;SDS011;16889;67.864;24.990;2023-02-01T11:42:29;5.97;;;2.42;;
30062;SDS011;16889;67.864;24.990;2023-02-01T11:52:12;8.98;;;2.22;;
30062;SDS011;16889;67.864;24.990;2023-02-01T12:13:37;10.80;;;2.50;;
30062;SDS011;16889;67.864;24.990;2023-02-01T12:34:11;12.02;;;2.72;;
30062;SDS011;16889;67.864;24.990;2023-02-01T12:44:03;14.23;;;2.60;;
30062;SDS011;16889;67.864;24.990;2023-02-01T12:59:02;7.78;;;2.90;;
30062;SDS011;16889;67.864;24.990;2023-02-01T13:20:02;13.20;;;2.50;;
30062;SDS011;16889;67.864;24.990;2023-02-01T13:24:33;10.32;;;2.50;;
30062;SDS011;16889;67.864;24.990;2023-02-01T13:29:21;11.95;;;2.60;;
30062;SDS011;16889;67.864;24.990;2023-02-01T13:44:34;12.15;;;2.33;;
30062;SDS011;16889;67.864;24.990;2023-02-01T13:49:29;12.00;;;3.00;;
30062;SDS011;16889;67.864;24.990;2023-02-01T14:00:06;15.00;;;3.38;;
30062;SDS011;16889;67.864;24.990;2023-02-01T14:04:47;12.60;;;2.85;;
30062;SDS011;16889;67.864;24.990;2023-02-01T14:09:35;14.00;;;3.03;;
30062;SDS011;16889;67.864;24.990;2023-02-01T14:19:27;17.40;;;3.90;;
30062;SDS011;16889;67.864;24.990;2023-02-01T14:24:20;17.35;;;2.92;;
30062;SDS011;16889;67.864;24.990;2023-02-01T14:39:29;10.85;;;2.47;;
30062;SDS011;16889;67.864;24.990;2023-02-01T14:44:36;20.73;;;3.00;;
30062;SDS011;16889;67.864;24.990;2023-02-01T14:49:22;16.30;;;2.67;;
30062;SDS011;16889;67.864;24.990;2023-02-01T14:54:13;13.00;;;3.10;;
30062;SDS011;16889;67.864;24.990;2023-02-01T14:59:01;10.45;;;2.85;;
30062;SDS011;16889;67.864;24.990;2023-02-01T15:03:56;19.95;;;3.53;;
30062;SDS011;16889;67.864;24.990;2023-02-01T15:08:52;9.10;;;1.83;;
30062;SDS011;16889;67.864;24.990;2023-02-01T15:13:48;8.77;;;2.40;;
30062;SDS011;16889;67.864;24.990;2023-02-01T15:18:36;10.25;;;2.38;;
30062;SDS011;16889;67.864;24.990;2023-02-01T15:23:22;14.95;;;2.88;;
30062;SDS011;16889;67.864;24.990;2023-02-01T15:28:12;11.73;;;2.00;;
30062;SDS011;16889;67.864;24.990;2023-02-01T15:33:04;12.13;;;2.08;;
30062;SDS011;16889;67.864;24.990;2023-02-01T15:37:52;15.23;;;2.58;;
30062;SDS011;16889;67.864;24.990;2023-02-01T15:42:40;20.58;;;2.38;;
30062;SDS011;16889;67.864;24.990;2023-02-01T15:47:37;7.90;;;1.92;;
30062;SDS011;16889;67.864;24.990;2023-02-01T15:52:36;8.55;;;2.08;;
30062;SDS011;16889;67.864;24.990;2023-02-01T15:57:30;11.60;;;2.38;;
30062;SDS011;16889;67.864;24.990;2023-02-01T16:02:25;9.13;;;1.80;;
30062;SDS011;16889;67.864;24.990;2023-02-01T16:07:29;8.98;;;2.15;;
30062;SDS011;16889;67.864;24.990;2023-02-01T16:12:45;9.93;;;2.63;;
30062;SDS011;16889;67.864;24.990;2023-02-01T16:17:28;11.60;;;2.80;;
30062;SDS011;16889;67.864;24.990;2023-02-01T16:22:14;17.77;;;2.58;;
30062;SDS011;16889;67.864;24.990;2023-02-01T16:27:03;13.65;;;2.10;;
30062;SDS011;16889;67.864;24.990;2023-02-01T16:31:52;19.05;;;2.78;;
30062;SDS011;16889;67.864;24.990;2023-02-01T16:36:38;10.18;;;2.05;;
30062;SDS011;16889;67.864;24.990;2023-02-01T16:41:24;8.13;;;2.35;;
30062;SDS011;16889;67.864;24.990;2023-02-01T16:46:16;12.55;;;2.53;;
30062;SDS011;16889;67.864;24.990;2023-02-01T16:51:10;12.10;;;2.53;;
30062;SDS011;16889;67.864;24.990;2023-02-01T16:55:58;11.20;;;2.00;;
30062;SDS011;16889;67.864;24.990;2023-02-01T17:00:44;9.73;;;1.95;;
30062;SDS011;16889;67.864;24.990;2023-02-01T17:10:22;11.57;;;2.10;;
30062;SDS011;16889;67.864;24.990;2023-02-01T17:15:11;9.98;;;1.75;;
30062;SDS011;16889;67.864;24.990;2023-02-01T17:19:57;11.35;;;1.95;;
30062;SDS011;16889;67.864;24.990;2023-02-01T17:24:43;7.75;;;2.00;;
30062;SDS011;16889;67.864;24.990;2023-02-01T17:29:29;11.97;;;1.70;;
30062;SDS011;16889;67.864;24.990;2023-02-01T17:34:15;12.30;;;2.15;;
30062;SDS011;16889;67.864;24.990;2023-02-01T17:43:49;6.50;;;1.50;;
30062;SDS011;16889;67.864;24.990;2023-02-01T17:48:37;11.07;;;2.45;;
30062;SDS011;16889;67.864;24.990;2023-02-01T17:53:27;6.97;;;1.88;;
30062;SDS011;16889;67.864;24.990;2023-02-01T17:58:14;9.95;;;1.60;;
30062;SDS011;16889;67.864;24.990;2023-02-01T18:03:01;7.60;;;2.13;;
30062;SDS011;16889;67.864;24.990;2023-02-01T18:07:47;13.93;;;1.48;;
30062;SDS011;16889;67.864;24.990;2023-02-01T18:12:33;9.70;;;1.70;;
30062;SDS011;16889;67.864;24.990;2023-02-01T18:17:20;6.67;;;1.80;;
30062;SDS011;16889;67.864;24.990;2023-02-01T18:22:08;8.18;;;1.75;;
30062;SDS011;16889;67.864;24.990;2023-02-01T18:27:09;8.82;;;1.60;;
30062;SDS011;16889;67.864;24.990;2023-02-01T18:31:55;14.95;;;2.70;;
30062;SDS011;16889;67.864;24.990;2023-02-01T18:36:40;10.05;;;2.03;;
30062;SDS011;16889;67.864;24.990;2023-02-01T18:41:26;10.98;;;2.00;;
30062;SDS011;16889;67.864;24.990;2023-02-01T18:46:13;7.05;;;1.58;;
30062;SDS011;16889;67.864;24.990;2023-02-01T18:50:59;10.98;;;2.13;;
30062;SDS011;16889;67.864;24.990;2023-02-01T18:55:48;7.22;;;1.83;;
30062;SDS011;16889;67.864;24.990;2023-02-01T19:00:34;9.13;;;1.67;;
30062;SDS011;16889;67.864;24.990;2023-02-01T19:05:20;7.95;;;1.80;;
30062;SDS011;16889;67.864;24.990;2023-02-01T19:10:07;8.57;;;1.67;;
30062;SDS011;16889;67.864;24.990;2023-02-01T19:14:56;9.95;;;2.03;;
30062;SDS011;16889;67.864;24.990;2023-02-01T19:19:42;7.72;;;1.27;;
30062;SDS011;16889;67.864;24.990;2023-02-01T19:24:30;13.00;;;2.38;;
30062;SDS011;16889;67.864;24.990;2023-02-01T19:29:18;11.00;;;1.92;;
30062;SDS011;16889;67.864;24.990;2023-02-01T19:34:04;9.40;;;1.70;;
30062;SDS011;16889;67.864;24.990;2023-02-01T19:38:50;15.48;;;1.90;;
30062;SDS011;16889;67.864;24.990;2023-02-01T19:43:36;9.05;;;2.08;;
30062;SDS011;16889;67.864;24.990;2023-02-01T19:48:23;7.68;;;1.63;;
30062;SDS011;16889;67.864;24.990;2023-02-01T19:53:10;11.23;;;1.70;;
30062;SDS011;16889;67.864;24.990;2023-02-01T19:57:56;17.97;;;1.80;;
30062;SDS011;16889;67.864;24.990;2023-02-01T20:02:42;9.15;;;1.55;;
30062;SDS011;16889;67.864;24.990;2023-02-01T20:07:28;5.13;;;1.33;;
30062;SDS011;16889;67.864;24.990;2023-02-01T20:12:14;7.70;;;1.40;;
30062;SDS011;16889;67.864;24.990;2023-02-01T20:17:00;7.55;;;1.20;;
30062;SDS011;16889;67.864;24.990;2023-02-01T20:21:46;10.80;;;1.73;;
30062;SDS011;16889;67.864;24.990;2023-02-01T20:26:34;9.82;;;1.60;;
30062;SDS011;16889;67.864;24.990;2023-02-01T20:31:20;13.90;;;1.77;;
30062;SDS011;16889;67.864;24.990;2023-02-01T20:36:09;7.82;;;1.50;;
30062;SDS011;16889;67.864;24.990;2023-02-01T20:41:02;9.02;;;1.45;;
30062;SDS011;16889;67.864;24.990;2023-02-01T20:45:49;7.00;;;1.35;;
30062;SDS011;16889;67.864;24.990;2023-02-01T20:50:35;5.85;;;1.23;;
30062;SDS011;16889;67.864;24.990;2023-02-01T20:55:22;8.77;;;1.30;;
30062;SDS011;16889;67.864;24.990;2023-02-01T21:00:09;4.22;;;1.20;;
30062;SDS011;16889;67.864;24.990;2023-02-01T21:04:56;5.38;;;1.30;;
30062;SDS011;16889;67.864;24.990;2023-02-01T21:09:42;4.78;;;1.17;;
30062;SDS011;16889;67.864;24.990;2023-02-01T21:14:29;7.00;;;1.57;;
30062;SDS011;16889;67.864;24.990;2023-02-01T21:19:17;10.27;;;1.48;;
30062;SDS011;16889;67.864;24.990;2023-02-01T21:24:04;11.35;;;1.60;;
30062;SDS011;16889;67.864;24.990;2023-02-01T21:28:51;12.88;;;1.50;;
30062;SDS011;16889;67.864;24.990;2023-02-01T21:33:38;9.82;;;1.20;;
30062;SDS011;16889;67.864;24.990;2023-02-01T21:38:26;10.43;;;1.83;;
30062;SDS011;16889;67.864;24.990;2023-02-01T21:43:12;8.00;;;1.48;;
30062;SDS011;16889;67.864;24.990;2023-02-01T21:47:58;7.90;;;1.30;;
30062;SDS011;16889;67.864;24.990;2023-02-01T21:52:46;7.00;;;1.20;;
30062;SDS011;16889;67.864;24.990;2023-02-01T21:57:32;10.70;;;1.10;;
30062;SDS011;16889;67.864;24.990;2023-02-01T22:02:18;6.27;;;1.37;;
30062;SDS011;16889;67.864;24.990;2023-02-01T22:07:04;11.50;;;1.25;;
30062;SDS011;16889;67.864;24.990;2023-02-01T22:11:51;9.07;;;1.20;;
30062;SDS011;16889;67.864;24.990;2023-02-01T22:16:38;12.10;;;1.25;;
30062;SDS011;16889;67.864;24.990;2023-02-01T22:21:24;10.10;;;1.27;;
30062;SDS011;16889;67.864;24.990;2023-02-01T22:26:12;10.73;;;1.10;;
30062;SDS011;16889;67.864;24.990;2023-02-01T22:31:02;12.73;;;1.40;;
30062;SDS011;16889;67.864;24.990;2023-02-01T22:35:50;7.78;;;1.17;;
30062;SDS011;16889;67.864;24.990;2023-02-01T22:40:36;5.97;;;1.20;;
30062;SDS011;16889;67.864;24.990;2023-02-01T22:45:22;11.52;;;1.52;;
30062;SDS011;16889;67.864;24.990;2023-02-01T22:50:08;8.70;;;1.23;;
30062;SDS011;16889;67.864;24.990;2023-02-01T22:54:55;7.97;;;1.30;;
30062;SDS011;16889;67.864;24.990;2023-02-01T22:59:41;7.63;;;1.55;;
30062;SDS011;16889;67.864;24.990;2023-02-01T23:04:27;12.30;;;1.10;;
30062;SDS011;16889;67.864;24.990;2023-02-01T23:09:14;10.77;;;1.73;;
30062;SDS011;16889;67.864;24.990;2023-02-01T23:14:01;7.38;;;1.52;;
30062;SDS011;16889;67.864;24.990;2023-02-01T23:18:48;9.68;;;1.48;;
30062;SDS011;16889;67.864;24.990;2023-02-01T23:23:33;7.50;;;1.48;;
30062;SDS011;16889;67.864;24.990;2023-02-01T23:28:19;7.35;;;1.42;;
30062;SDS011;16889;67.864;24.990;2023-02-01T23:33:06;11.27;;;1.27;;
30062;SDS011;16889;67.864;24.990;2023-02-01T23:37:52;7.40;;;1.05;;
30062;SDS011;16889;67.864;24.990;2023-02-01T23:42:38;11.55;;;1.60;;
30062;SDS011;16889;67.864;24.990;2023-02-01T23:47:24;6.83;;;1.33;;
30062;SDS011;16889;67.864;24.990;2023-02-01T23:52:10;11.60;;;1.55;;
30062;SDS011;16889;67.864;24.990;2023-02-01T23:56:56;6.43;;;1.08;;
